createdAt,value
2018-09-15T00:00:55.921Z,15.70
2018-09-15T00:03:25.340Z,15.60
2018-09-15T00:05:54.468Z,15.60
2018-09-15T00:08:23.329Z,15.60
2018-09-15T00:10:52.232Z,15.60
2018-09-15T00:13:22.101Z,15.60
2018-09-15T00:15:50.993Z,15.60
2018-09-15T00:18:19.972Z,15.50
2018-09-15T00:20:48.833Z,15.50
2018-09-15T00:23:17.737Z,15.50
2018-09-15T00:25:46.614Z,15.40
2018-09-15T00:28:15.505Z,15.40
2018-09-15T00:30:44.377Z,15.40
2018-09-15T00:33:13.256Z,15.30
2018-09-15T00:35:42.142Z,15.30
2018-09-15T00:38:11.017Z,15.30
2018-09-15T00:40:39.984Z,15.20
2018-09-15T00:43:08.871Z,15.20
2018-09-15T00:45:37.712Z,15.20
2018-09-15T00:48:06.641Z,15.20
2018-09-15T00:50:35.514Z,15.10
2018-09-15T00:53:04.543Z,15.00
2018-09-15T00:55:33.435Z,15.00
2018-09-15T00:58:02.324Z,15.00
2018-09-15T01:00:31.246Z,14.90
2018-09-15T01:03:00.249Z,14.90
2018-09-15T01:05:29.304Z,14.90
2018-09-15T01:07:58.188Z,14.80
2018-09-15T01:10:27.104Z,14.80
2018-09-15T01:12:55.961Z,14.80
2018-09-15T01:15:24.858Z,14.80
2018-09-15T01:17:53.685Z,14.70
2018-09-15T01:20:22.548Z,14.70
2018-09-15T01:22:51.420Z,14.70
2018-09-15T01:25:20.253Z,14.70
2018-09-15T01:27:49.164Z,14.70
2018-09-15T01:30:18.096Z,14.70
2018-09-15T01:32:47.013Z,14.60
2018-09-15T01:35:15.860Z,14.60
2018-09-15T01:37:44.762Z,14.60
2018-09-15T01:40:13.624Z,14.50
2018-09-15T01:42:42.473Z,14.50
2018-09-15T01:45:11.341Z,14.50
2018-09-15T01:47:40.292Z,14.50
2018-09-15T01:50:09.185Z,14.60
2018-09-15T01:52:38.136Z,14.60
2018-09-15T01:55:07.020Z,14.50
2018-09-15T01:57:35.975Z,14.50
2018-09-15T02:00:05.032Z,14.50
2018-09-15T02:02:33.868Z,14.50
2018-09-15T02:05:02.746Z,14.50
2018-09-15T02:07:31.604Z,14.50
2018-09-15T02:10:00.492Z,14.40
2018-09-15T02:12:29.592Z,14.40
2018-09-15T02:14:58.545Z,14.40
2018-09-15T02:17:27.442Z,14.40
2018-09-15T02:19:56.373Z,14.40
2018-09-15T02:22:25.245Z,14.50
2018-09-15T02:24:54.168Z,14.50
2018-09-15T02:27:23.033Z,14.40
2018-09-15T02:29:51.928Z,14.40
2018-09-15T02:32:20.813Z,14.30
2018-09-15T02:34:49.712Z,14.40
2018-09-15T02:37:18.568Z,14.40
2018-09-15T02:39:47.436Z,14.40
2018-09-15T02:42:16.353Z,14.40
2018-09-15T02:44:45.217Z,14.40
2018-09-15T02:47:14.100Z,14.40
2018-09-15T02:49:43.025Z,14.50
2018-09-15T02:52:11.864Z,14.50
2018-09-15T02:54:40.796Z,15.20
2018-09-15T02:57:09.591Z,15.50
2018-09-15T02:59:38.480Z,16.00
2018-09-15T03:02:07.464Z,17.30
2018-09-15T03:04:36.316Z,17.70
2018-09-15T03:07:05.222Z,17.30
2018-09-15T03:09:34.764Z,16.80
2018-09-15T03:12:04.353Z,16.30
2018-09-15T03:14:33.224Z,15.90
2018-09-15T03:17:02.104Z,15.70
2018-09-15T03:19:31.006Z,15.50
2018-09-15T03:21:59.948Z,15.20
2018-09-15T03:24:28.839Z,15.00
2018-09-15T03:26:57.805Z,14.90
2018-09-15T03:29:26.657Z,14.70
2018-09-15T03:31:55.561Z,14.60
2018-09-15T03:34:24.406Z,14.50
2018-09-15T03:36:53.461Z,14.50
2018-09-15T03:39:22.308Z,14.40
2018-09-15T03:41:51.303Z,14.40
2018-09-15T03:44:20.128Z,14.30
2018-09-15T03:46:49.025Z,14.30
2018-09-15T03:49:17.884Z,14.30
2018-09-15T03:51:46.794Z,14.20
2018-09-15T03:54:18.364Z,14.20
2018-09-15T03:56:47.253Z,14.10
2018-09-15T03:59:16.845Z,14.10
2018-09-15T04:01:46.305Z,14.10
2018-09-15T04:04:15.149Z,14.10
2018-09-15T04:06:44.058Z,14.20
2018-09-15T04:09:13.028Z,14.10
2018-09-15T04:11:41.920Z,14.10
2018-09-15T04:14:10.788Z,14.10
2018-09-15T04:16:39.632Z,14.10
2018-09-15T04:19:08.516Z,14.10
2018-09-15T04:21:37.497Z,14.10
2018-09-15T04:24:06.469Z,14.10
2018-09-15T04:26:35.369Z,14.10
2018-09-15T04:29:04.215Z,14.10
2018-09-15T04:31:33.140Z,14.10
2018-09-15T04:34:02.028Z,14.10
2018-09-15T04:36:31.249Z,14.10
2018-09-15T04:39:00.181Z,14.00
2018-09-15T04:41:29.216Z,14.00
2018-09-15T04:43:58.101Z,14.00
2018-09-15T04:46:27.010Z,14.00
2018-09-15T04:48:55.902Z,14.00
2018-09-15T04:51:24.846Z,14.40
2018-09-15T04:53:53.888Z,15.10
2018-09-15T04:56:22.718Z,15.50
2018-09-15T04:58:51.696Z,16.50
2018-09-15T05:01:20.548Z,17.30
2018-09-15T05:03:49.512Z,17.40
2018-09-15T05:06:18.385Z,16.90
2018-09-15T05:08:47.284Z,16.40
2018-09-15T05:11:16.175Z,15.90
2018-09-15T05:13:45.053Z,15.50
2018-09-15T05:16:13.966Z,15.20
2018-09-15T05:18:42.839Z,14.90
2018-09-15T05:21:11.736Z,14.80
2018-09-15T05:23:40.588Z,14.70
2018-09-15T05:26:09.472Z,14.60
2018-09-15T05:28:38.336Z,14.60
2018-09-15T05:31:07.221Z,14.60
2018-09-15T05:33:36.108Z,14.60
2018-09-15T05:36:05.049Z,14.70
2018-09-15T05:38:33.852Z,14.70
2018-09-15T05:41:02.744Z,14.70
2018-09-15T05:43:31.683Z,14.70
2018-09-15T05:46:00.597Z,14.70
2018-09-15T05:48:29.756Z,14.70
2018-09-15T05:50:58.602Z,14.80
2018-09-15T05:53:27.504Z,14.90
2018-09-15T05:55:56.393Z,14.90
2018-09-15T05:58:25.312Z,15.00
2018-09-15T06:00:54.724Z,14.90
2018-09-15T06:03:23.930Z,14.90
2018-09-15T06:05:52.853Z,14.80
2018-09-15T06:08:21.782Z,14.80
2018-09-15T06:10:50.668Z,14.90
2018-09-15T06:13:19.584Z,15.00
2018-09-15T06:15:48.840Z,15.10
2018-09-15T06:18:17.782Z,15.20
2018-09-15T06:20:46.650Z,15.20
2018-09-15T06:23:15.508Z,15.30
2018-09-15T06:25:44.384Z,15.30
2018-09-15T06:28:13.280Z,15.40
2018-09-15T06:30:42.179Z,15.50
2018-09-15T06:33:11.025Z,15.60
2018-09-15T06:35:40.029Z,15.70
2018-09-15T06:38:08.957Z,15.90
2018-09-15T06:40:37.888Z,16.00
2018-09-15T06:43:06.757Z,16.10
2018-09-15T06:45:35.772Z,16.30
2018-09-15T06:48:04.605Z,16.50
2018-09-15T06:50:33.526Z,16.70
2018-09-15T06:53:02.435Z,16.90
2018-09-15T06:55:31.324Z,16.90
2018-09-15T06:58:00.206Z,16.90
2018-09-15T07:00:29.132Z,16.80
2018-09-15T07:02:58.001Z,16.80
2018-09-15T07:05:26.880Z,16.80
2018-09-15T07:07:55.869Z,16.70
2018-09-15T07:10:24.773Z,16.70
2018-09-15T07:12:53.693Z,16.80
2018-09-15T07:15:22.548Z,17.00
2018-09-15T07:17:51.469Z,17.10
2018-09-15T07:20:20.409Z,17.30
2018-09-15T07:22:49.306Z,17.30
2018-09-15T07:25:18.182Z,17.30
2018-09-15T07:27:47.156Z,17.30
2018-09-15T07:30:16.024Z,17.50
2018-09-15T07:32:44.854Z,17.60
2018-09-15T07:35:13.780Z,17.50
2018-09-15T07:37:42.692Z,17.50
2018-09-15T07:40:11.691Z,17.60
2018-09-15T07:42:40.540Z,17.90
2018-09-15T07:45:09.507Z,17.80
2018-09-15T07:47:38.385Z,17.90
2018-09-15T07:50:07.356Z,18.00
2018-09-15T07:52:36.292Z,18.10
2018-09-15T07:55:05.180Z,18.10
2018-09-15T07:57:34.140Z,18.20
2018-09-15T08:00:02.978Z,18.30
2018-09-15T08:02:31.847Z,18.50
2018-09-15T08:05:00.902Z,18.60
2018-09-15T08:07:29.781Z,18.70
2018-09-15T08:09:58.624Z,18.70
2018-09-15T08:12:27.645Z,18.70
2018-09-15T08:14:56.575Z,18.60
2018-09-15T08:17:25.455Z,18.60
2018-09-15T08:19:54.409Z,18.70
2018-09-15T08:22:23.324Z,18.80
2018-09-15T08:24:52.319Z,19.00
2018-09-15T08:27:21.155Z,19.10
2018-09-15T08:29:50.036Z,19.20
2018-09-15T08:32:18.904Z,19.30
2018-09-15T08:34:47.800Z,19.50
2018-09-15T08:37:17.341Z,19.60
2018-09-15T08:39:46.213Z,19.80
2018-09-15T08:42:15.114Z,19.90
2018-09-15T08:44:44.060Z,20.00
2018-09-15T08:47:12.991Z,20.10
2018-09-15T08:49:42.025Z,20.20
2018-09-15T08:52:10.985Z,20.30
2018-09-15T08:54:39.929Z,20.40
2018-09-15T08:57:08.825Z,20.50
2018-09-15T08:59:37.732Z,20.70
2018-09-15T09:02:11.015Z,20.80
2018-09-15T09:04:39.910Z,20.90
2018-09-15T09:07:08.773Z,21.00
2018-09-15T09:09:38.431Z,21.10
2018-09-15T09:12:07.313Z,21.20
2018-09-15T09:14:36.217Z,21.30
2018-09-15T09:17:05.089Z,21.50
2018-09-15T09:19:34.036Z,21.70
2018-09-15T09:22:02.901Z,21.80
2018-09-15T09:24:31.772Z,22.00
2018-09-15T09:27:00.908Z,22.20
2018-09-15T09:29:29.792Z,22.30
2018-09-15T09:31:58.668Z,22.40
2018-09-15T09:34:27.641Z,22.50
2018-09-15T09:36:56.484Z,22.60
2018-09-15T09:39:25.476Z,22.80
2018-09-15T09:41:54.361Z,22.90
2018-09-15T09:44:23.334Z,23.10
2018-09-15T09:46:52.225Z,23.20
2018-09-15T09:49:21.135Z,23.40
2018-09-15T09:51:50.059Z,23.60
2018-09-15T09:54:18.928Z,23.70
2018-09-15T09:56:47.842Z,23.90
2018-09-15T09:59:16.835Z,24.00
2018-09-15T10:01:50.960Z,24.20
2018-09-15T10:04:19.789Z,24.40
2018-09-15T10:06:48.717Z,24.60
2018-09-15T10:09:18.424Z,24.80
2018-09-15T10:11:47.373Z,25.00
2018-09-15T10:14:16.448Z,25.10
2018-09-15T10:16:45.380Z,25.10
2018-09-15T10:19:14.317Z,25.40
2018-09-15T10:21:43.233Z,25.60
2018-09-15T10:24:12.132Z,25.90
2018-09-15T10:26:41.042Z,26.00
2018-09-15T10:29:09.967Z,25.80
2018-09-15T10:31:38.967Z,25.70
2018-09-15T10:34:07.818Z,25.60
2018-09-15T10:36:36.728Z,25.70
2018-09-15T10:39:08.029Z,25.70
2018-09-15T10:41:37.174Z,25.40
2018-09-15T10:44:06.269Z,25.30
2018-09-15T10:46:35.321Z,25.20
2018-09-15T10:49:04.262Z,25.10
2018-09-15T10:51:33.172Z,25.00
2018-09-15T10:54:02.049Z,24.90
2018-09-15T10:56:30.969Z,24.90
2018-09-15T10:58:59.884Z,24.90
2018-09-15T11:01:28.827Z,24.90
2018-09-15T11:03:57.701Z,25.00
2018-09-15T11:06:26.580Z,24.90
2018-09-15T11:08:55.464Z,24.90
2018-09-15T11:11:24.364Z,24.90
2018-09-15T11:13:53.264Z,24.80
2018-09-15T11:16:22.212Z,24.80
2018-09-15T11:18:51.069Z,24.90
2018-09-15T11:21:20.021Z,25.00
2018-09-15T11:23:48.884Z,25.30
2018-09-15T11:26:17.808Z,25.40
2018-09-15T11:28:46.710Z,25.60
2018-09-15T11:31:15.601Z,25.80
2018-09-15T11:33:44.429Z,25.90
2018-09-15T11:36:13.298Z,25.90
2018-09-15T11:38:42.169Z,25.80
2018-09-15T11:41:11.103Z,25.70
2018-09-15T11:43:39.996Z,25.80
2018-09-15T11:46:08.908Z,26.00
2018-09-15T11:48:37.852Z,26.50
2018-09-15T11:51:06.803Z,27.00
2018-09-15T11:53:35.808Z,27.60
2018-09-15T11:56:04.748Z,27.90
2018-09-15T11:58:33.625Z,27.70
2018-09-15T12:01:03.761Z,27.40
2018-09-15T12:03:32.963Z,27.10
2018-09-15T12:06:01.845Z,26.70
2018-09-15T12:08:30.713Z,26.30
2018-09-15T12:10:59.613Z,26.00
2018-09-15T12:13:28.520Z,25.80
2018-09-15T12:15:57.404Z,25.60
2018-09-15T12:18:26.271Z,25.40
2018-09-15T12:20:55.160Z,25.40
2018-09-15T12:23:24.063Z,25.30
2018-09-15T12:25:52.952Z,25.20
2018-09-15T12:28:21.845Z,25.10
2018-09-15T12:30:50.724Z,25.00
2018-09-15T12:33:19.710Z,25.00
2018-09-15T12:35:48.496Z,24.90
2018-09-15T12:38:17.396Z,24.80
2018-09-15T12:40:46.233Z,24.70
2018-09-15T12:43:15.394Z,24.70
2018-09-15T12:45:44.309Z,24.80
2018-09-15T12:48:13.174Z,24.80
2018-09-15T12:50:42.028Z,24.80
2018-09-15T12:53:10.957Z,24.80
2018-09-15T12:55:39.812Z,24.80
2018-09-15T12:58:08.739Z,24.90
2018-09-15T13:00:37.663Z,24.90
2018-09-15T13:03:06.532Z,24.90
2018-09-15T13:05:35.408Z,25.00
2018-09-15T13:08:04.277Z,25.40
2018-09-15T13:10:33.190Z,26.10
2018-09-15T13:13:02.108Z,26.80
2018-09-15T13:15:31.098Z,27.40
2018-09-15T13:17:59.997Z,27.30
2018-09-15T13:20:28.956Z,27.20
2018-09-15T13:22:57.829Z,27.10
2018-09-15T13:25:26.690Z,26.90
2018-09-15T13:27:55.629Z,26.90
2018-09-15T13:30:24.691Z,26.80
2018-09-15T13:32:53.508Z,26.80
2018-09-15T13:35:22.480Z,26.70
2018-09-15T13:37:51.354Z,26.70
2018-09-15T13:40:20.294Z,26.60
2018-09-15T13:42:49.180Z,26.70
2018-09-15T13:45:18.142Z,27.20
2018-09-15T13:47:47.036Z,27.70
2018-09-15T13:50:15.888Z,27.90
2018-09-15T13:52:44.785Z,27.60
2018-09-15T13:55:13.722Z,27.20
2018-09-15T13:57:42.585Z,26.80
2018-09-15T14:00:11.460Z,26.50
2018-09-15T14:02:44.116Z,26.20
2018-09-15T14:05:14.223Z,26.20
2018-09-15T14:07:43.496Z,26.30
2018-09-15T14:10:19.007Z,26.70
2018-09-15T14:12:41.710Z,27.30
2018-09-15T14:15:10.641Z,28.00
2018-09-15T14:17:39.636Z,28.70
2018-09-15T14:20:09.436Z,29.10
2018-09-15T14:22:38.319Z,29.70
2018-09-15T14:25:07.249Z,30.30
2018-09-15T14:27:36.128Z,30.90
2018-09-15T14:30:05.293Z,31.70
2018-09-15T14:32:34.178Z,32.40
2018-09-15T14:35:03.098Z,33.00
2018-09-15T14:37:32.067Z,34.00
2018-09-15T14:40:00.932Z,34.70
2018-09-15T14:42:29.824Z,35.20
2018-09-15T14:44:58.728Z,36.00
2018-09-15T14:47:27.599Z,36.80
2018-09-15T14:49:56.495Z,37.10
2018-09-15T14:52:25.386Z,37.60
2018-09-15T14:54:54.270Z,38.40
2018-09-15T14:57:23.208Z,38.60
2018-09-15T14:59:52.097Z,39.10
2018-09-15T15:02:21.017Z,39.10
2018-09-15T15:04:49.938Z,38.50
2018-09-15T15:07:18.830Z,38.40
2018-09-15T15:09:47.712Z,38.20
2018-09-15T15:12:16.607Z,36.10
2018-09-15T15:14:45.535Z,35.40
2018-09-15T15:17:14.495Z,34.10
2018-09-15T15:19:43.388Z,35.20
2018-09-15T15:22:13.153Z,36.70
2018-09-15T15:24:42.008Z,37.50
2018-09-15T15:27:10.949Z,38.10
2018-09-15T15:29:39.821Z,38.40
2018-09-15T15:32:08.771Z,37.80
2018-09-15T15:34:37.679Z,37.90
2018-09-15T15:37:06.737Z,38.20
2018-09-15T15:39:35.538Z,38.50
2018-09-15T15:42:04.500Z,38.70
2018-09-15T15:44:33.315Z,37.90
2018-09-15T15:47:02.208Z,37.40
2018-09-15T15:49:31.200Z,36.10
2018-09-15T15:52:00.117Z,36.40
2018-09-15T15:54:29.024Z,36.50
2018-09-15T15:56:58.063Z,36.60
2018-09-15T15:59:27.212Z,36.70
2018-09-15T16:01:56.100Z,35.80
2018-09-15T16:04:25.015Z,33.30
2018-09-15T16:06:53.894Z,31.10
2018-09-15T16:09:22.838Z,29.60
2018-09-15T16:11:51.793Z,28.40
2018-09-15T16:14:20.664Z,27.50
2018-09-15T16:16:49.556Z,26.80
2018-09-15T16:19:18.465Z,26.30
2018-09-15T16:21:47.341Z,25.90
2018-09-15T16:24:16.199Z,25.70
2018-09-15T16:26:45.096Z,25.40
2018-09-15T16:29:13.968Z,25.10
2018-09-15T16:31:42.865Z,24.90
2018-09-15T16:34:11.745Z,24.60
2018-09-15T16:36:40.656Z,24.50
2018-09-15T16:39:11.472Z,24.30
2018-09-15T16:41:40.370Z,24.10
2018-09-15T16:44:09.224Z,23.90
2018-09-15T16:46:38.152Z,23.70
2018-09-15T16:49:07.851Z,23.70
2018-09-15T16:51:36.953Z,23.50
2018-09-15T16:54:06.840Z,23.30
2018-09-15T16:56:37.106Z,23.20
2018-09-15T16:59:06.214Z,23.00
2018-09-15T17:01:35.113Z,22.80
2018-09-15T17:04:03.965Z,22.50
2018-09-15T17:06:32.892Z,22.30
2018-09-15T17:09:01.908Z,22.30
2018-09-15T17:11:39.169Z,22.30
2018-09-15T17:14:08.072Z,22.30
2018-09-15T17:16:37.023Z,22.30
2018-09-15T17:19:06.229Z,22.20
2018-09-15T17:21:35.457Z,22.00
2018-09-15T17:24:04.348Z,22.10
2018-09-15T17:26:33.216Z,22.10
2018-09-15T17:29:02.188Z,22.10
2018-09-15T17:31:31.141Z,22.10
2018-09-15T17:34:00.021Z,22.10
2018-09-15T17:36:28.957Z,22.20
2018-09-15T17:38:57.894Z,22.00
2018-09-15T17:41:26.792Z,22.00
2018-09-15T17:43:55.908Z,22.00
2018-09-15T17:46:24.892Z,21.80
2018-09-15T17:48:53.940Z,21.90
2018-09-15T17:51:23.259Z,21.90
2018-09-15T17:53:52.205Z,21.90
2018-09-15T17:56:21.080Z,21.90
2018-09-15T17:58:49.994Z,21.90
2018-09-15T18:01:18.824Z,21.70
2018-09-15T18:03:47.804Z,21.30
2018-09-15T18:06:16.844Z,21.00
2018-09-15T18:08:45.770Z,20.70
2018-09-15T18:11:14.847Z,20.50
2018-09-15T18:13:43.727Z,20.50
2018-09-15T18:16:12.936Z,20.40
2018-09-15T18:18:42.592Z,20.30
2018-09-15T18:21:11.524Z,20.20
2018-09-15T18:23:40.545Z,20.10
2018-09-15T18:26:10.407Z,20.00
2018-09-15T18:28:39.641Z,19.90
2018-09-15T18:31:08.777Z,19.80
2018-09-15T18:33:37.738Z,19.80
2018-09-15T18:36:06.993Z,19.70
2018-09-15T18:38:35.938Z,19.70
2018-09-15T18:41:05.908Z,19.70
2018-09-15T18:43:34.883Z,19.70
2018-09-15T18:46:04.211Z,19.70
2018-09-15T18:48:33.927Z,19.60
2018-09-15T18:51:03.005Z,19.50
2018-09-15T18:53:32.053Z,19.40
2018-09-15T18:56:00.994Z,19.40
2018-09-15T18:58:29.877Z,19.30
2018-09-15T19:00:59.072Z,19.20
2018-09-15T19:03:27.948Z,19.10
2018-09-15T19:05:57.151Z,19.10
2018-09-15T19:08:26.024Z,19.00
2018-09-15T19:10:54.997Z,19.00
2018-09-15T19:13:23.857Z,18.90
2018-09-15T19:15:52.849Z,18.80
2018-09-15T19:18:21.736Z,18.70
2018-09-15T19:20:50.696Z,18.70
2018-09-15T19:23:19.864Z,18.60
2018-09-15T19:25:48.808Z,18.60
2018-09-15T19:28:17.789Z,18.60
2018-09-15T19:30:46.867Z,18.50
2018-09-15T19:33:15.759Z,18.50
2018-09-15T19:35:44.723Z,18.50
2018-09-15T19:38:13.879Z,18.40
2018-09-15T19:40:42.818Z,18.40
2018-09-15T19:43:11.712Z,18.40
2018-09-15T19:45:41.027Z,18.40
2018-09-15T19:48:09.948Z,18.40
2018-09-15T19:50:39.897Z,18.40
2018-09-15T19:53:08.890Z,18.30
2018-09-15T19:55:37.853Z,18.30
2018-09-15T19:58:07.224Z,18.30
2018-09-15T20:00:36.621Z,18.30
2018-09-15T20:03:05.626Z,18.30
2018-09-15T20:05:40.528Z,18.30
2018-09-15T20:08:09.440Z,18.20
2018-09-15T20:10:38.352Z,18.20
2018-09-15T20:13:07.543Z,18.20
2018-09-15T20:15:35.033Z,18.20
2018-09-15T20:18:02.745Z,18.20
2018-09-15T20:20:30.283Z,18.20
2018-09-15T20:22:59.190Z,18.20
2018-09-15T20:25:34.791Z,18.20
2018-09-15T20:28:03.676Z,18.20
2018-09-15T20:30:32.645Z,18.20
2018-09-15T20:33:01.626Z,18.20
2018-09-15T20:35:30.643Z,18.20
2018-09-15T20:37:59.540Z,18.20
2018-09-15T20:40:28.534Z,18.20
2018-09-15T20:42:57.860Z,18.20
2018-09-15T20:45:26.728Z,18.10
2018-09-15T20:47:56.434Z,18.10
2018-09-15T20:50:32.026Z,18.10
2018-09-15T20:53:00.984Z,18.10
2018-09-15T20:55:30.624Z,18.10
2018-09-15T20:57:59.714Z,18.10
2018-09-15T21:00:28.581Z,18.00
2018-09-15T21:02:57.808Z,18.00
2018-09-15T21:05:26.941Z,18.00
2018-09-15T21:07:56.099Z,17.90
2018-09-15T21:10:25.012Z,18.00
2018-09-15T21:12:53.895Z,18.00
2018-09-15T21:15:22.897Z,18.00
2018-09-15T21:17:51.804Z,17.90
2018-09-15T21:20:20.803Z,18.00
2018-09-15T21:22:49.701Z,17.90
2018-09-15T21:25:18.624Z,18.00
2018-09-15T21:27:47.474Z,17.90
2018-09-15T21:30:16.410Z,17.80
2018-09-15T21:32:45.255Z,17.80
2018-09-15T21:35:14.185Z,17.80
2018-09-15T21:37:43.119Z,17.80
2018-09-15T21:40:12.015Z,17.80
2018-09-15T21:42:40.904Z,17.80
2018-09-15T21:45:09.749Z,17.80
2018-09-15T21:47:38.729Z,17.90
2018-09-15T21:50:07.611Z,17.90
2018-09-15T21:52:36.504Z,17.90
2018-09-15T21:55:05.918Z,17.90
2018-09-15T21:57:34.788Z,17.80
2018-09-15T22:00:03.969Z,17.90
2018-09-15T22:02:33.160Z,17.80
2018-09-15T22:05:02.156Z,17.90
2018-09-15T22:07:31.085Z,17.90
2018-09-15T22:10:00.038Z,17.80
2018-09-15T22:12:28.988Z,17.90
2018-09-15T22:14:58.616Z,17.90
2018-09-15T22:17:27.495Z,17.90
2018-09-15T22:19:56.717Z,17.90
2018-09-15T22:22:25.695Z,17.80
2018-09-15T22:24:54.552Z,17.80
2018-09-15T22:27:23.392Z,17.80
2018-09-15T22:29:52.327Z,17.70
2018-09-15T22:32:21.212Z,17.70
2018-09-15T22:34:50.307Z,17.70
2018-09-15T22:37:19.197Z,17.70
2018-09-15T22:39:48.140Z,17.60
2018-09-15T22:42:17.100Z,17.50
2018-09-15T22:44:45.997Z,17.50
2018-09-15T22:47:14.830Z,17.40
2018-09-15T22:49:43.758Z,17.40
2018-09-15T22:52:12.783Z,17.30
2018-09-15T22:54:41.612Z,17.20
2018-09-15T22:57:10.524Z,17.30
2018-09-15T22:59:39.350Z,17.20
2018-09-15T23:02:08.327Z,17.20
2018-09-15T23:04:37.345Z,17.20
2018-09-15T23:07:06.312Z,17.20
2018-09-15T23:09:35.171Z,17.20
2018-09-15T23:12:04.083Z,17.30
2018-09-15T23:14:33.008Z,17.20
2018-09-15T23:17:01.872Z,17.10
2018-09-15T23:19:30.776Z,17.20
2018-09-15T23:21:59.631Z,17.20
2018-09-15T23:24:28.500Z,17.20
2018-09-15T23:26:57.422Z,17.20
2018-09-15T23:29:26.293Z,17.20
2018-09-15T23:31:55.136Z,17.20
2018-09-15T23:34:24.099Z,17.10
2018-09-15T23:36:53.034Z,17.10
2018-09-15T23:39:22.052Z,17.10
2018-09-15T23:41:50.880Z,17.00
2018-09-15T23:44:19.752Z,17.00
2018-09-15T23:46:48.614Z,17.00
2018-09-15T23:49:17.473Z,17.00
2018-09-15T23:51:46.352Z,17.00
2018-09-15T23:54:15.212Z,17.00
2018-09-15T23:56:44.107Z,17.00
2018-09-15T23:59:13.019Z,16.90
